Gering, Nebraska
Current Conditions -  °F | °C
As of 7:53 AM on Monday 24 Nov 2014 (Local Time) from KBFF Reporting Station
Overcast Overcast  
Wind Chill: 24°   Ceiling: 8000
Heat Index: 32°   Visibility: 10mi
Dew Point: 18°   Wind: 9mph
Humidity: 56%   Direction: 280°W
Pressure: 29.87"   Gusts: NA
Location:  41.82°N, 103.66°W
Report Text: KBFF 241453Z AUTO 28008KT 10SM SCT043 OVC080 00/M08 A2987 RMK AO2 SLP137 T00001078 53019
Loading
Personal Weather Stations






























Interactive Weather Map New forecast layout! Learn more

10-Day Weather Forecast

Advertisements
Track Severe Weather on mobile